sensor_id;sensor_type;location;lat;lon;timestamp;temperature;humidity
12893;DHT22;6514;48.606;9.222;2022-11-21T00:01:18;4.60;99.90
12893;DHT22;6514;48.606;9.222;2022-11-21T00:03:45;4.60;99.90
12893;DHT22;6514;48.606;9.222;2022-11-21T00:06:12;4.60;99.90
12893;DHT22;6514;48.606;9.222;2022-11-21T00:08:40;4.60;99.90
12893;DHT22;6514;48.606;9.222;2022-11-21T00:11:07;4.60;99.90
12893;DHT22;6514;48.606;9.222;2022-11-21T00:13:33;4.60;99.90
12893;DHT22;6514;48.606;9.222;2022-11-21T00:16:04;4.60;99.90
12893;DHT22;6514;48.606;9.222;2022-11-21T00:18:34;4.60;99.90
12893;DHT22;6514;48.606;9.222;2022-11-21T00:21:04;4.60;99.90
12893;DHT22;6514;48.606;9.222;2022-11-21T00:23:32;4.60;99.90
12893;DHT22;6514;48.606;9.222;2022-11-21T00:26:03;4.50;99.90
12893;DHT22;6514;48.606;9.222;2022-11-21T00:28:30;4.50;99.90
12893;DHT22;6514;48.606;9.222;2022-11-21T00:30:56;4.50;99.90
12893;DHT22;6514;48.606;9.222;2022-11-21T00:33:23;4.40;99.90
12893;DHT22;6514;48.606;9.222;2022-11-21T00:35:51;4.40;99.90
12893;DHT22;6514;48.606;9.222;2022-11-21T00:38:18;4.30;99.90
12893;DHT22;6514;48.606;9.222;2022-11-21T00:40:45;4.30;99.90
12893;DHT22;6514;48.606;9.222;2022-11-21T00:43:12;4.20;99.90
12893;DHT22;6514;48.606;9.222;2022-11-21T00:45:39;4.20;99.90
12893;DHT22;6514;48.606;9.222;2022-11-21T00:48:06;4.10;99.90
12893;DHT22;6514;48.606;9.222;2022-11-21T00:50:33;4.00;99.90
12893;DHT22;6514;48.606;9.222;2022-11-21T00:53:01;4.00;99.90
12893;DHT22;6514;48.606;9.222;2022-11-21T00:55:28;3.90;99.90
12893;DHT22;6514;48.606;9.222;2022-11-21T00:57:55;3.90;99.90
12893;DHT22;6514;48.606;9.222;2022-11-21T01:00:22;3.80;99.90
12893;DHT22;6514;48.606;9.222;2022-11-21T01:02:48;3.70;99.90
12893;DHT22;6514;48.606;9.222;2022-11-21T01:05:15;3.70;99.90
12893;DHT22;6514;48.606;9.222;2022-11-21T01:07:42;3.70;99.90
12893;DHT22;6514;48.606;9.222;2022-11-21T01:10:10;3.60;99.90
12893;DHT22;6514;48.606;9.222;2022-11-21T01:12:37;3.60;99.90
12893;DHT22;6514;48.606;9.222;2022-11-21T01:15:05;3.60;99.90
12893;DHT22;6514;48.606;9.222;2022-11-21T01:17:32;3.60;99.90
12893;DHT22;6514;48.606;9.222;2022-11-21T01:19:59;3.70;99.90
12893;DHT22;6514;48.606;9.222;2022-11-21T01:22:26;3.70;99.90
12893;DHT22;6514;48.606;9.222;2022-11-21T01:24:53;3.80;99.90
12893;DHT22;6514;48.606;9.222;2022-11-21T01:27:21;3.80;99.90
12893;DHT22;6514;48.606;9.222;2022-11-21T01:29:48;3.90;99.90
12893;DHT22;6514;48.606;9.222;2022-11-21T01:32:17;3.90;99.90
12893;DHT22;6514;48.606;9.222;2022-11-21T01:34:44;3.90;99.90
12893;DHT22;6514;48.606;9.222;2022-11-21T01:37:10;4.00;99.90
12893;DHT22;6514;48.606;9.222;2022-11-21T01:39:37;4.00;99.90
12893;DHT22;6514;48.606;9.222;2022-11-21T01:42:04;4.10;99.90
12893;DHT22;6514;48.606;9.222;2022-11-21T01:44:48;4.10;99.90
12893;DHT22;6514;48.606;9.222;2022-11-21T01:47:15;4.10;99.90
12893;DHT22;6514;48.606;9.222;2022-11-21T01:49:43;4.20;99.90
12893;DHT22;6514;48.606;9.222;2022-11-21T01:52:13;4.20;99.90
12893;DHT22;6514;48.606;9.222;2022-11-21T01:54:42;4.20;99.90
12893;DHT22;6514;48.606;9.222;2022-11-21T01:57:13;4.30;99.90
12893;DHT22;6514;48.606;9.222;2022-11-21T01:59:46;4.40;99.90
12893;DHT22;6514;48.606;9.222;2022-11-21T02:02:16;4.40;99.90
12893;DHT22;6514;48.606;9.222;2022-11-21T02:04:44;4.40;99.90
12893;DHT22;6514;48.606;9.222;2022-11-21T02:07:14;4.40;99.90
12893;DHT22;6514;48.606;9.222;2022-11-21T02:09:44;4.40;99.90
12893;DHT22;6514;48.606;9.222;2022-11-21T02:12:16;4.40;99.90
12893;DHT22;6514;48.606;9.222;2022-11-21T02:14:45;4.40;99.90
12893;DHT22;6514;48.606;9.222;2022-11-21T02:17:12;4.40;99.90
12893;DHT22;6514;48.606;9.222;2022-11-21T02:19:44;4.50;99.90
12893;DHT22;6514;48.606;9.222;2022-11-21T02:22:20;4.50;99.90
12893;DHT22;6514;48.606;9.222;2022-11-21T02:24:59;4.50;99.90
12893;DHT22;6514;48.606;9.222;2022-11-21T02:27:27;4.50;99.90
12893;DHT22;6514;48.606;9.222;2022-11-21T02:29:54;4.50;99.90
12893;DHT22;6514;48.606;9.222;2022-11-21T02:32:21;4.60;99.90
12893;DHT22;6514;48.606;9.222;2022-11-21T02:34:49;4.50;99.90
12893;DHT22;6514;48.606;9.222;2022-11-21T02:37:19;4.50;99.90
12893;DHT22;6514;48.606;9.222;2022-11-21T02:39:46;4.50;99.90
12893;DHT22;6514;48.606;9.222;2022-11-21T02:42:23;4.50;99.90
12893;DHT22;6514;48.606;9.222;2022-11-21T02:44:56;4.50;99.90
12893;DHT22;6514;48.606;9.222;2022-11-21T02:47:27;4.50;99.90
12893;DHT22;6514;48.606;9.222;2022-11-21T02:49:58;4.40;99.90
12893;DHT22;6514;48.606;9.222;2022-11-21T02:52:31;4.40;99.90
12893;DHT22;6514;48.606;9.222;2022-11-21T02:54:57;4.40;99.90
12893;DHT22;6514;48.606;9.222;2022-11-21T02:57:26;4.40;99.90
12893;DHT22;6514;48.606;9.222;2022-11-21T02:59:52;4.40;99.90
12893;DHT22;6514;48.606;9.222;2022-11-21T03:02:21;4.40;99.90
12893;DHT22;6514;48.606;9.222;2022-11-21T03:04:53;4.40;99.90
12893;DHT22;6514;48.606;9.222;2022-11-21T03:07:20;4.50;99.90
12893;DHT22;6514;48.606;9.222;2022-11-21T03:09:47;4.50;99.90
12893;DHT22;6514;48.606;9.222;2022-11-21T03:12:14;4.40;99.90
12893;DHT22;6514;48.606;9.222;2022-11-21T03:14:42;4.40;99.90
12893;DHT22;6514;48.606;9.222;2022-11-21T03:17:09;4.40;99.90
12893;DHT22;6514;48.606;9.222;2022-11-21T03:19:36;4.40;99.90
12893;DHT22;6514;48.606;9.222;2022-11-21T03:22:03;4.40;99.90
12893;DHT22;6514;48.606;9.222;2022-11-21T03:24:30;4.40;99.90
12893;DHT22;6514;48.606;9.222;2022-11-21T03:26:56;4.40;99.90
12893;DHT22;6514;48.606;9.222;2022-11-21T03:29:25;4.40;99.90
12893;DHT22;6514;48.606;9.222;2022-11-21T03:31:53;4.40;99.90
12893;DHT22;6514;48.606;9.222;2022-11-21T03:34:20;4.40;99.90
12893;DHT22;6514;48.606;9.222;2022-11-21T03:36:46;4.40;99.90
12893;DHT22;6514;48.606;9.222;2022-11-21T03:39:13;4.40;99.90
12893;DHT22;6514;48.606;9.222;2022-11-21T03:41:40;4.50;99.90
12893;DHT22;6514;48.606;9.222;2022-11-21T03:44:09;4.40;99.90
12893;DHT22;6514;48.606;9.222;2022-11-21T03:46:38;4.50;99.90
12893;DHT22;6514;48.606;9.222;2022-11-21T03:49:07;4.50;99.90
12893;DHT22;6514;48.606;9.222;2022-11-21T03:51:34;4.50;99.90
12893;DHT22;6514;48.606;9.222;2022-11-21T03:54:01;4.40;99.90
12893;DHT22;6514;48.606;9.222;2022-11-21T03:56:28;4.50;99.90
12893;DHT22;6514;48.606;9.222;2022-11-21T03:58:55;4.40;99.90
12893;DHT22;6514;48.606;9.222;2022-11-21T04:01:23;4.40;99.90
12893;DHT22;6514;48.606;9.222;2022-11-21T04:03:50;4.40;99.90
12893;DHT22;6514;48.606;9.222;2022-11-21T04:06:20;4.40;99.90
12893;DHT22;6514;48.606;9.222;2022-11-21T04:08:48;4.40;99.90
12893;DHT22;6514;48.606;9.222;2022-11-21T04:11:15;4.40;99.90
12893;DHT22;6514;48.606;9.222;2022-11-21T04:13:42;4.40;99.90
12893;DHT22;6514;48.606;9.222;2022-11-21T04:16:09;4.40;99.90
12893;DHT22;6514;48.606;9.222;2022-11-21T04:18:36;4.40;99.90
12893;DHT22;6514;48.606;9.222;2022-11-21T04:21:04;4.40;99.90
12893;DHT22;6514;48.606;9.222;2022-11-21T04:23:33;4.30;99.90
12893;DHT22;6514;48.606;9.222;2022-11-21T04:26:00;4.30;99.90
12893;DHT22;6514;48.606;9.222;2022-11-21T04:28:27;4.30;99.90
12893;DHT22;6514;48.606;9.222;2022-11-21T04:30:54;4.30;99.90
12893;DHT22;6514;48.606;9.222;2022-11-21T04:33:21;4.30;99.90
12893;DHT22;6514;48.606;9.222;2022-11-21T04:35:50;4.30;99.90
12893;DHT22;6514;48.606;9.222;2022-11-21T04:38:20;4.30;99.90
12893;DHT22;6514;48.606;9.222;2022-11-21T04:40:48;4.30;99.90
12893;DHT22;6514;48.606;9.222;2022-11-21T04:43:15;4.30;99.90
12893;DHT22;6514;48.606;9.222;2022-11-21T04:45:44;4.20;99.90
12893;DHT22;6514;48.606;9.222;2022-11-21T04:48:11;4.30;99.90
12893;DHT22;6514;48.606;9.222;2022-11-21T04:50:38;4.20;99.90
12893;DHT22;6514;48.606;9.222;2022-11-21T04:53:05;4.20;99.90
12893;DHT22;6514;48.606;9.222;2022-11-21T04:55:32;4.20;99.90
12893;DHT22;6514;48.606;9.222;2022-11-21T04:58:03;4.20;99.90
12893;DHT22;6514;48.606;9.222;2022-11-21T05:00:29;4.10;99.90
12893;DHT22;6514;48.606;9.222;2022-11-21T05:03:00;4.10;99.90
12893;DHT22;6514;48.606;9.222;2022-11-21T05:05:28;4.10;99.90
12893;DHT22;6514;48.606;9.222;2022-11-21T05:07:55;4.10;99.90
12893;DHT22;6514;48.606;9.222;2022-11-21T05:10:21;4.00;99.90
12893;DHT22;6514;48.606;9.222;2022-11-21T05:12:55;4.00;99.90
12893;DHT22;6514;48.606;9.222;2022-11-21T05:15:42;3.90;99.90
12893;DHT22;6514;48.606;9.222;2022-11-21T05:18:09;3.90;99.90
12893;DHT22;6514;48.606;9.222;2022-11-21T05:20:35;3.90;99.90
12893;DHT22;6514;48.606;9.222;2022-11-21T05:23:02;3.90;99.90
12893;DHT22;6514;48.606;9.222;2022-11-21T05:25:29;4.00;99.90
12893;DHT22;6514;48.606;9.222;2022-11-21T05:27:56;4.00;99.90
12893;DHT22;6514;48.606;9.222;2022-11-21T05:30:23;4.00;99.90
12893;DHT22;6514;48.606;9.222;2022-11-21T05:32:51;4.00;99.90
12893;DHT22;6514;48.606;9.222;2022-11-21T05:35:18;4.00;99.90
12893;DHT22;6514;48.606;9.222;2022-11-21T05:37:45;4.00;99.90
12893;DHT22;6514;48.606;9.222;2022-11-21T05:40:12;3.90;99.90
12893;DHT22;6514;48.606;9.222;2022-11-21T05:42:39;4.00;99.90
12893;DHT22;6514;48.606;9.222;2022-11-21T05:45:24;4.00;99.90
12893;DHT22;6514;48.606;9.222;2022-11-21T05:47:52;4.00;99.90
12893;DHT22;6514;48.606;9.222;2022-11-21T05:50:19;4.00;99.90
12893;DHT22;6514;48.606;9.222;2022-11-21T05:52:46;4.00;99.90
12893;DHT22;6514;48.606;9.222;2022-11-21T05:55:13;4.00;99.90
12893;DHT22;6514;48.606;9.222;2022-11-21T05:57:40;4.00;99.90
12893;DHT22;6514;48.606;9.222;2022-11-21T06:00:08;4.00;99.90
12893;DHT22;6514;48.606;9.222;2022-11-21T06:02:35;3.90;99.90
12893;DHT22;6514;48.606;9.222;2022-11-21T06:05:24;3.90;99.90
12893;DHT22;6514;48.606;9.222;2022-11-21T06:07:50;3.80;99.90
12893;DHT22;6514;48.606;9.222;2022-11-21T06:10:17;3.80;99.90
12893;DHT22;6514;48.606;9.222;2022-11-21T06:12:44;3.80;99.90
12893;DHT22;6514;48.606;9.222;2022-11-21T06:15:11;3.80;99.90
12893;DHT22;6514;48.606;9.222;2022-11-21T06:17:38;3.80;99.90
12893;DHT22;6514;48.606;9.222;2022-11-21T06:20:06;3.80;99.90
12893;DHT22;6514;48.606;9.222;2022-11-21T06:22:35;3.80;99.90
12893;DHT22;6514;48.606;9.222;2022-11-21T06:25:01;3.70;99.90
12893;DHT22;6514;48.606;9.222;2022-11-21T06:27:28;3.70;99.90
12893;DHT22;6514;48.606;9.222;2022-11-21T06:29:55;3.70;99.90
12893;DHT22;6514;48.606;9.222;2022-11-21T06:32:22;3.80;99.90
12893;DHT22;6514;48.606;9.222;2022-11-21T06:34:49;3.70;99.90
12893;DHT22;6514;48.606;9.222;2022-11-21T06:37:16;3.80;99.90
12893;DHT22;6514;48.606;9.222;2022-11-21T06:39:44;3.70;99.90
12893;DHT22;6514;48.606;9.222;2022-11-21T06:42:11;3.70;99.90
12893;DHT22;6514;48.606;9.222;2022-11-21T06:44:38;3.60;99.90
12893;DHT22;6514;48.606;9.222;2022-11-21T06:47:04;3.50;99.90
12893;DHT22;6514;48.606;9.222;2022-11-21T06:49:31;3.50;99.90
12893;DHT22;6514;48.606;9.222;2022-11-21T06:51:58;3.40;99.90
12893;DHT22;6514;48.606;9.222;2022-11-21T06:54:25;3.40;99.90
12893;DHT22;6514;48.606;9.222;2022-11-21T06:56:53;3.30;99.90
12893;DHT22;6514;48.606;9.222;2022-11-21T06:59:20;3.20;99.90
12893;DHT22;6514;48.606;9.222;2022-11-21T07:01:47;3.10;99.90
12893;DHT22;6514;48.606;9.222;2022-11-21T07:04:14;3.10;99.90
12893;DHT22;6514;48.606;9.222;2022-11-21T07:06:41;3.10;99.90
12893;DHT22;6514;48.606;9.222;2022-11-21T07:09:08;3.00;99.90
12893;DHT22;6514;48.606;9.222;2022-11-21T07:11:35;3.00;99.90
12893;DHT22;6514;48.606;9.222;2022-11-21T07:14:03;2.90;99.90
12893;DHT22;6514;48.606;9.222;2022-11-21T07:16:29;2.90;99.90
12893;DHT22;6514;48.606;9.222;2022-11-21T07:18:57;2.90;99.90
12893;DHT22;6514;48.606;9.222;2022-11-21T07:21:24;2.80;99.90
12893;DHT22;6514;48.606;9.222;2022-11-21T07:23:51;2.80;99.90
12893;DHT22;6514;48.606;9.222;2022-11-21T07:26:18;2.70;99.90
12893;DHT22;6514;48.606;9.222;2022-11-21T07:28:45;2.70;99.90
12893;DHT22;6514;48.606;9.222;2022-11-21T07:31:13;2.70;99.90
12893;DHT22;6514;48.606;9.222;2022-11-21T07:33:41;2.70;99.90
12893;DHT22;6514;48.606;9.222;2022-11-21T07:36:08;2.70;99.90
12893;DHT22;6514;48.606;9.222;2022-11-21T07:38:35;2.80;99.90
12893;DHT22;6514;48.606;9.222;2022-11-21T07:41:02;2.90;99.90
12893;DHT22;6514;48.606;9.222;2022-11-21T07:43:29;3.00;99.90
12893;DHT22;6514;48.606;9.222;2022-11-21T07:45:56;3.10;99.90
12893;DHT22;6514;48.606;9.222;2022-11-21T07:48:24;3.30;99.90
12893;DHT22;6514;48.606;9.222;2022-11-21T07:50:51;3.60;99.90
12893;DHT22;6514;48.606;9.222;2022-11-21T07:53:18;3.90;99.90
12893;DHT22;6514;48.606;9.222;2022-11-21T07:55:45;4.20;99.90
12893;DHT22;6514;48.606;9.222;2022-11-21T07:58:14;4.50;99.90
12893;DHT22;6514;48.606;9.222;2022-11-21T08:00:41;4.70;99.90
12893;DHT22;6514;48.606;9.222;2022-11-21T08:03:09;5.00;99.90
12893;DHT22;6514;48.606;9.222;2022-11-21T08:05:39;5.20;99.90
12893;DHT22;6514;48.606;9.222;2022-11-21T08:08:07;5.50;99.90
12893;DHT22;6514;48.606;9.222;2022-11-21T08:10:36;5.60;99.90
12893;DHT22;6514;48.606;9.222;2022-11-21T08:13:04;5.80;99.90
12893;DHT22;6514;48.606;9.222;2022-11-21T08:15:31;5.70;99.90
12893;DHT22;6514;48.606;9.222;2022-11-21T08:17:58;5.40;99.90
12893;DHT22;6514;48.606;9.222;2022-11-21T08:20:25;5.30;99.90
12893;DHT22;6514;48.606;9.222;2022-11-21T08:22:53;5.50;99.90
12893;DHT22;6514;48.606;9.222;2022-11-21T08:25:20;5.80;99.90
12893;DHT22;6514;48.606;9.222;2022-11-21T08:27:46;6.10;99.90
12893;DHT22;6514;48.606;9.222;2022-11-21T08:30:14;6.50;99.90
12893;DHT22;6514;48.606;9.222;2022-11-21T08:32:41;6.90;99.90
12893;DHT22;6514;48.606;9.222;2022-11-21T08:35:08;7.30;99.90
12893;DHT22;6514;48.606;9.222;2022-11-21T08:37:35;7.60;99.90
12893;DHT22;6514;48.606;9.222;2022-11-21T08:40:06;7.90;99.90
12893;DHT22;6514;48.606;9.222;2022-11-21T08:42:33;8.10;99.90
12893;DHT22;6514;48.606;9.222;2022-11-21T08:45:00;8.60;99.90
12893;DHT22;6514;48.606;9.222;2022-11-21T08:47:27;9.10;99.90
12893;DHT22;6514;48.606;9.222;2022-11-21T08:49:54;9.30;99.90
12893;DHT22;6514;48.606;9.222;2022-11-21T08:52:21;9.40;99.90
12893;DHT22;6514;48.606;9.222;2022-11-21T08:54:48;9.60;99.90
12893;DHT22;6514;48.606;9.222;2022-11-21T08:57:16;9.60;99.90
12893;DHT22;6514;48.606;9.222;2022-11-21T08:59:43;9.70;99.90
12893;DHT22;6514;48.606;9.222;2022-11-21T09:02:10;9.70;99.90
12893;DHT22;6514;48.606;9.222;2022-11-21T09:04:37;9.90;99.90
12893;DHT22;6514;48.606;9.222;2022-11-21T09:07:04;10.00;99.90
12893;DHT22;6514;48.606;9.222;2022-11-21T09:09:31;10.10;99.90
12893;DHT22;6514;48.606;9.222;2022-11-21T09:11:59;10.20;99.90
12893;DHT22;6514;48.606;9.222;2022-11-21T09:14:27;10.50;99.90
12893;DHT22;6514;48.606;9.222;2022-11-21T09:17:13;10.70;99.90
12893;DHT22;6514;48.606;9.222;2022-11-21T09:19:57;10.90;99.90
12893;DHT22;6514;48.606;9.222;2022-11-21T09:22:24;10.80;99.90
12893;DHT22;6514;48.606;9.222;2022-11-21T09:24:51;10.80;99.90
12893;DHT22;6514;48.606;9.222;2022-11-21T09:27:18;10.70;99.90
12893;DHT22;6514;48.606;9.222;2022-11-21T09:29:46;10.60;99.90
12893;DHT22;6514;48.606;9.222;2022-11-21T09:32:13;10.50;99.90
12893;DHT22;6514;48.606;9.222;2022-11-21T09:34:40;10.40;99.90
12893;DHT22;6514;48.606;9.222;2022-11-21T09:37:07;10.40;99.90
12893;DHT22;6514;48.606;9.222;2022-11-21T09:39:34;10.50;99.90
12893;DHT22;6514;48.606;9.222;2022-11-21T09:42:17;10.70;99.90
12893;DHT22;6514;48.606;9.222;2022-11-21T09:45:03;10.70;99.90
12893;DHT22;6514;48.606;9.222;2022-11-21T09:47:32;10.70;99.90
12893;DHT22;6514;48.606;9.222;2022-11-21T09:50:01;10.60;99.90
12893;DHT22;6514;48.606;9.222;2022-11-21T09:52:36;10.40;99.90
12893;DHT22;6514;48.606;9.222;2022-11-21T09:55:06;10.10;99.90
12893;DHT22;6514;48.606;9.222;2022-11-21T09:57:34;10.10;99.90
12893;DHT22;6514;48.606;9.222;2022-11-21T10:00:22;9.70;99.90
12893;DHT22;6514;48.606;9.222;2022-11-21T10:02:50;9.60;99.90
12893;DHT22;6514;48.606;9.222;2022-11-21T10:05:24;9.80;99.90
12893;DHT22;6514;48.606;9.222;2022-11-21T10:08:00;10.20;99.90
12893;DHT22;6514;48.606;9.222;2022-11-21T10:10:41;10.20;99.90
12893;DHT22;6514;48.606;9.222;2022-11-21T10:13:18;10.30;99.90
12893;DHT22;6514;48.606;9.222;2022-11-21T10:15:55;10.50;99.90
12893;DHT22;6514;48.606;9.222;2022-11-21T10:18:34;10.60;99.90
12893;DHT22;6514;48.606;9.222;2022-11-21T10:21:11;10.80;99.90
12893;DHT22;6514;48.606;9.222;2022-11-21T10:24:00;10.90;99.90
12893;DHT22;6514;48.606;9.222;2022-11-21T10:26:35;11.00;99.90
12893;DHT22;6514;48.606;9.222;2022-11-21T10:29:11;11.10;99.90
12893;DHT22;6514;48.606;9.222;2022-11-21T10:31:42;11.30;99.90
12893;DHT22;6514;48.606;9.222;2022-11-21T10:34:11;11.20;99.90
12893;DHT22;6514;48.606;9.222;2022-11-21T10:36:40;11.10;99.90
12893;DHT22;6514;48.606;9.222;2022-11-21T10:39:13;11.10;99.90
12893;DHT22;6514;48.606;9.222;2022-11-21T10:41:49;10.90;99.90
12893;DHT22;6514;48.606;9.222;2022-11-21T10:44:24;10.80;99.90
12893;DHT22;6514;48.606;9.222;2022-11-21T10:47:16;10.60;99.90
12893;DHT22;6514;48.606;9.222;2022-11-21T10:49:56;10.70;99.90
12893;DHT22;6514;48.606;9.222;2022-11-21T10:52:29;10.70;99.90
12893;DHT22;6514;48.606;9.222;2022-11-21T10:55:08;10.50;99.90
12893;DHT22;6514;48.606;9.222;2022-11-21T10:57:39;10.60;99.90
12893;DHT22;6514;48.606;9.222;2022-11-21T11:00:22;10.60;99.90
12893;DHT22;6514;48.606;9.222;2022-11-21T11:03:05;10.50;99.90
12893;DHT22;6514;48.606;9.222;2022-11-21T11:05:34;10.20;99.90
12893;DHT22;6514;48.606;9.222;2022-11-21T11:08:05;10.00;99.90
12893;DHT22;6514;48.606;9.222;2022-11-21T11:10:34;9.70;99.90
12893;DHT22;6514;48.606;9.222;2022-11-21T11:13:02;9.60;99.90
12893;DHT22;6514;48.606;9.222;2022-11-21T11:15:57;9.50;99.90
12893;DHT22;6514;48.606;9.222;2022-11-21T11:18:26;9.20;99.90
12893;DHT22;6514;48.606;9.222;2022-11-21T11:21:10;9.00;99.90
12893;DHT22;6514;48.606;9.222;2022-11-21T11:23:37;9.00;99.90
12893;DHT22;6514;48.606;9.222;2022-11-21T11:26:18;8.90;99.90
12893;DHT22;6514;48.606;9.222;2022-11-21T11:28:46;9.00;99.90
12893;DHT22;6514;48.606;9.222;2022-11-21T11:31:13;9.10;99.90
12893;DHT22;6514;48.606;9.222;2022-11-21T11:33:49;9.30;99.90
12893;DHT22;6514;48.606;9.222;2022-11-21T11:36:33;9.40;99.90
12893;DHT22;6514;48.606;9.222;2022-11-21T11:39:11;9.30;99.90
12893;DHT22;6514;48.606;9.222;2022-11-21T11:41:53;9.20;99.90
12893;DHT22;6514;48.606;9.222;2022-11-21T11:44:48;9.10;99.90
12893;DHT22;6514;48.606;9.222;2022-11-21T11:47:44;9.30;99.90
12893;DHT22;6514;48.606;9.222;2022-11-21T11:50:18;9.80;99.90
12893;DHT22;6514;48.606;9.222;2022-11-21T11:52:55;10.30;99.90
12893;DHT22;6514;48.606;9.222;2022-11-21T11:55:28;10.70;99.90
12893;DHT22;6514;48.606;9.222;2022-11-21T11:58:00;11.10;99.90
12893;DHT22;6514;48.606;9.222;2022-11-21T12:00:33;11.30;99.90
12893;DHT22;6514;48.606;9.222;2022-11-21T12:03:04;11.50;99.90
12893;DHT22;6514;48.606;9.222;2022-11-21T12:05:37;11.70;99.90
12893;DHT22;6514;48.606;9.222;2022-11-21T12:08:13;11.70;99.90
12893;DHT22;6514;48.606;9.222;2022-11-21T12:10:46;11.80;99.90
12893;DHT22;6514;48.606;9.222;2022-11-21T12:13:33;11.70;99.90
12893;DHT22;6514;48.606;9.222;2022-11-21T12:16:03;11.50;99.90
12893;DHT22;6514;48.606;9.222;2022-11-21T12:18:38;11.30;99.90
12893;DHT22;6514;48.606;9.222;2022-11-21T12:21:11;11.20;99.90
12893;DHT22;6514;48.606;9.222;2022-11-21T12:23:43;11.30;99.90
12893;DHT22;6514;48.606;9.222;2022-11-21T12:26:26;11.40;99.90
12893;DHT22;6514;48.606;9.222;2022-11-21T12:29:05;11.40;99.90
12893;DHT22;6514;48.606;9.222;2022-11-21T12:31:42;11.30;99.90
12893;DHT22;6514;48.606;9.222;2022-11-21T12:34:28;11.30;99.90
12893;DHT22;6514;48.606;9.222;2022-11-21T12:37:07;11.50;99.90
12893;DHT22;6514;48.606;9.222;2022-11-21T12:39:55;11.70;99.90
12893;DHT22;6514;48.606;9.222;2022-11-21T12:42:27;11.80;99.90
12893;DHT22;6514;48.606;9.222;2022-11-21T12:45:31;11.90;99.90
12893;DHT22;6514;48.606;9.222;2022-11-21T12:48:14;12.00;99.90
12893;DHT22;6514;48.606;9.222;2022-11-21T12:51:16;12.00;99.90
12893;DHT22;6514;48.606;9.222;2022-11-21T12:54:16;12.10;99.90
12893;DHT22;6514;48.606;9.222;2022-11-21T12:57:04;12.20;99.90
12893;DHT22;6514;48.606;9.222;2022-11-21T12:59:47;11.90;99.90
12893;DHT22;6514;48.606;9.222;2022-11-21T13:02:24;11.80;99.90
12893;DHT22;6514;48.606;9.222;2022-11-21T13:04:55;11.50;99.90
12893;DHT22;6514;48.606;9.222;2022-11-21T13:07:24;11.20;99.90
12893;DHT22;6514;48.606;9.222;2022-11-21T13:09:57;11.10;99.90
12893;DHT22;6514;48.606;9.222;2022-11-21T13:12:30;11.00;99.90
12893;DHT22;6514;48.606;9.222;2022-11-21T13:15:03;10.90;99.90
12893;DHT22;6514;48.606;9.222;2022-11-21T13:17:43;10.80;99.90
12893;DHT22;6514;48.606;9.222;2022-11-21T13:20:20;10.60;99.90
12893;DHT22;6514;48.606;9.222;2022-11-21T13:22:58;10.40;99.90
12893;DHT22;6514;48.606;9.222;2022-11-21T13:25:43;10.30;99.90
12893;DHT22;6514;48.606;9.222;2022-11-21T13:28:35;10.10;99.90
12893;DHT22;6514;48.606;9.222;2022-11-21T13:31:28;9.90;99.90
12893;DHT22;6514;48.606;9.222;2022-11-21T13:33:56;9.80;99.90
12893;DHT22;6514;48.606;9.222;2022-11-21T13:36:40;9.80;99.90
12893;DHT22;6514;48.606;9.222;2022-11-21T13:39:31;9.90;99.90
12893;DHT22;6514;48.606;9.222;2022-11-21T13:42:08;9.90;99.90
12893;DHT22;6514;48.606;9.222;2022-11-21T13:44:53;9.90;99.90
12893;DHT22;6514;48.606;9.222;2022-11-21T13:53:55;9.40;99.90
12893;DHT22;6514;48.606;9.222;2022-11-21T13:56:35;9.20;99.90
12893;DHT22;6514;48.606;9.222;2022-11-21T13:59:27;9.10;99.90
12893;DHT22;6514;48.606;9.222;2022-11-21T14:02:06;8.90;99.90
12893;DHT22;6514;48.606;9.222;2022-11-21T14:04:57;8.90;99.90
12893;DHT22;6514;48.606;9.222;2022-11-21T14:07:28;8.80;99.90
12893;DHT22;6514;48.606;9.222;2022-11-21T14:09:57;8.80;99.90
12893;DHT22;6514;48.606;9.222;2022-11-21T14:12:28;8.70;99.90
12893;DHT22;6514;48.606;9.222;2022-11-21T14:15:14;8.70;99.90
12893;DHT22;6514;48.606;9.222;2022-11-21T14:17:47;8.70;99.90
12893;DHT22;6514;48.606;9.222;2022-11-21T14:20:18;8.60;99.90
12893;DHT22;6514;48.606;9.222;2022-11-21T14:23:00;8.60;99.90
12893;DHT22;6514;48.606;9.222;2022-11-21T14:25:34;8.50;99.90
12893;DHT22;6514;48.606;9.222;2022-11-21T14:28:04;8.40;99.90
12893;DHT22;6514;48.606;9.222;2022-11-21T14:30:35;8.30;99.90
12893;DHT22;6514;48.606;9.222;2022-11-21T14:33:22;8.30;99.90
12893;DHT22;6514;48.606;9.222;2022-11-21T14:35:51;8.20;99.90
12893;DHT22;6514;48.606;9.222;2022-11-21T14:38:19;8.10;99.90
12893;DHT22;6514;48.606;9.222;2022-11-21T14:40:47;8.10;99.90
12893;DHT22;6514;48.606;9.222;2022-11-21T14:43:28;8.00;99.90
12893;DHT22;6514;48.606;9.222;2022-11-21T14:45:57;7.90;99.90
12893;DHT22;6514;48.606;9.222;2022-11-21T14:48:25;7.90;99.90
12893;DHT22;6514;48.606;9.222;2022-11-21T14:50:55;7.80;99.90
12893;DHT22;6514;48.606;9.222;2022-11-21T14:53:23;7.80;99.90
12893;DHT22;6514;48.606;9.222;2022-11-21T14:55:50;7.70;99.90
12893;DHT22;6514;48.606;9.222;2022-11-21T14:58:18;7.60;99.90
12893;DHT22;6514;48.606;9.222;2022-11-21T15:01:04;7.50;99.90
12893;DHT22;6514;48.606;9.222;2022-11-21T15:03:32;7.40;99.90
12893;DHT22;6514;48.606;9.222;2022-11-21T15:05:59;7.40;99.90
12893;DHT22;6514;48.606;9.222;2022-11-21T15:08:26;7.30;99.90
12893;DHT22;6514;48.606;9.222;2022-11-21T15:10:55;7.20;99.90
12893;DHT22;6514;48.606;9.222;2022-11-21T15:13:24;7.00;99.90
12893;DHT22;6514;48.606;9.222;2022-11-21T15:15:55;6.90;99.90
12893;DHT22;6514;48.606;9.222;2022-11-21T15:18:27;6.90;99.90
12893;DHT22;6514;48.606;9.222;2022-11-21T15:20:57;6.80;99.90
12893;DHT22;6514;48.606;9.222;2022-11-21T15:23:29;6.70;99.90
12893;DHT22;6514;48.606;9.222;2022-11-21T15:25:57;6.70;99.90
12893;DHT22;6514;48.606;9.222;2022-11-21T15:28:24;6.60;99.90
12893;DHT22;6514;48.606;9.222;2022-11-21T15:31:13;6.50;99.90
12893;DHT22;6514;48.606;9.222;2022-11-21T15:33:56;6.40;99.90
12893;DHT22;6514;48.606;9.222;2022-11-21T15:36:23;6.30;99.90
12893;DHT22;6514;48.606;9.222;2022-11-21T15:38:52;6.20;99.90
12893;DHT22;6514;48.606;9.222;2022-11-21T15:41:26;6.10;99.90
12893;DHT22;6514;48.606;9.222;2022-11-21T15:43:55;6.10;99.90
12893;DHT22;6514;48.606;9.222;2022-11-21T15:46:23;6.10;99.90
12893;DHT22;6514;48.606;9.222;2022-11-21T15:48:51;6.00;99.90
12893;DHT22;6514;48.606;9.222;2022-11-21T15:51:21;5.90;99.90
12893;DHT22;6514;48.606;9.222;2022-11-21T15:53:48;5.80;99.90
12893;DHT22;6514;48.606;9.222;2022-11-21T15:56:18;5.80;99.90
12893;DHT22;6514;48.606;9.222;2022-11-21T15:58:45;5.80;99.90
12893;DHT22;6514;48.606;9.222;2022-11-21T16:01:14;5.70;99.90
12893;DHT22;6514;48.606;9.222;2022-11-21T16:03:42;5.60;99.90
12893;DHT22;6514;48.606;9.222;2022-11-21T16:06:09;5.50;99.90
12893;DHT22;6514;48.606;9.222;2022-11-21T16:08:38;5.40;99.90
12893;DHT22;6514;48.606;9.222;2022-11-21T16:11:05;5.40;99.90
12893;DHT22;6514;48.606;9.222;2022-11-21T16:13:32;5.30;99.90
12893;DHT22;6514;48.606;9.222;2022-11-21T16:16:00;5.30;99.90
12893;DHT22;6514;48.606;9.222;2022-11-21T16:18:29;5.20;99.90
12893;DHT22;6514;48.606;9.222;2022-11-21T16:21:06;5.20;99.90
12893;DHT22;6514;48.606;9.222;2022-11-21T16:23:34;5.20;99.90
12893;DHT22;6514;48.606;9.222;2022-11-21T16:26:02;5.10;99.90
12893;DHT22;6514;48.606;9.222;2022-11-21T16:28:30;5.10;99.90